createdAt,value
2022-12-22T00:00:06.412Z,10.43
2022-12-22T00:05:46.632Z,11.93
2022-12-22T00:11:08.741Z,11.57
2022-12-22T00:16:29.912Z,13.33
2022-12-22T00:21:50.167Z,7.97
2022-12-22T00:27:12.155Z,8.03
2022-12-22T00:32:33.059Z,9.03
2022-12-22T00:37:55.265Z,4.03
2022-12-22T00:43:16.773Z,2.67
2022-12-22T00:48:43.007Z,2.60
2022-12-22T00:54:03.580Z,2.33
2022-12-22T00:59:28.625Z,2.23
2022-12-22T01:04:48.710Z,2.60
2022-12-22T01:10:11.513Z,2.43
2022-12-22T01:15:36.277Z,2.00
2022-12-22T01:20:56.720Z,3.10
2022-12-22T01:26:16.877Z,2.43
2022-12-22T01:31:46.316Z,2.40
2022-12-22T01:37:06.612Z,2.37
2022-12-22T01:42:30.407Z,2.77
2022-12-22T01:47:53.898Z,4.40
2022-12-22T01:53:19.635Z,4.03
2022-12-22T01:58:45.941Z,4.33
2022-12-22T02:04:07.383Z,3.60
2022-12-22T02:09:45.543Z,2.87
2022-12-22T02:15:17.308Z,2.90
2022-12-22T02:20:56.897Z,4.17
2022-12-22T02:26:23.061Z,7.90
2022-12-22T02:31:44.970Z,7.47
2022-12-22T02:37:17.351Z,7.47
2022-12-22T02:42:47.527Z,9.67
2022-12-22T02:48:17.180Z,8.27
2022-12-22T02:53:39.426Z,5.53
2022-12-22T02:58:59.595Z,9.87
2022-12-22T03:04:21.768Z,10.20
2022-12-22T03:09:41.950Z,11.77
2022-12-22T03:15:02.188Z,12.27
2022-12-22T03:20:25.425Z,12.20
2022-12-22T03:25:45.673Z,11.40
2022-12-22T03:30:55.291Z,5.83
2022-12-22T03:36:00.595Z,10.30
2022-12-22T03:41:04.069Z,11.40
2022-12-22T03:46:24.275Z,11.03
2022-12-22T03:51:28.549Z,10.23
2022-12-22T03:56:31.717Z,11.50
2022-12-22T04:01:37.906Z,10.80
2022-12-22T04:06:43.759Z,11.13
2022-12-22T04:12:04.131Z,9.23
2022-12-22T04:17:08.163Z,8.60
2022-12-22T04:22:12.452Z,8.50
2022-12-22T04:27:15.382Z,10.60
2022-12-22T04:32:18.468Z,10.53
2022-12-22T04:37:22.751Z,15.60
2022-12-22T04:42:25.813Z,14.20
2022-12-22T04:47:28.722Z,12.80
2022-12-22T04:52:33.063Z,10.67
2022-12-22T04:57:40.544Z,13.73
2022-12-22T05:02:44.187Z,10.83
2022-12-22T05:07:48.577Z,14.63
2022-12-22T05:12:57.213Z,10.70
2022-12-22T05:18:01.505Z,10.37
2022-12-22T05:23:05.766Z,15.77
2022-12-22T05:28:08.676Z,13.30
2022-12-22T05:33:11.574Z,11.27
2022-12-22T05:38:15.895Z,11.73
2022-12-22T05:43:18.982Z,13.83
2022-12-22T05:48:28.279Z,11.47
2022-12-22T05:53:35.309Z,10.60
2022-12-22T05:58:39.957Z,12.20
2022-12-22T06:03:43.023Z,13.47
2022-12-22T06:08:47.460Z,13.40
2022-12-22T06:13:50.365Z,13.90
2022-12-22T06:18:53.318Z,12.67
2022-12-22T06:23:57.616Z,12.40
2022-12-22T06:29:00.494Z,11.70
2022-12-22T06:34:03.487Z,11.43
2022-12-22T06:39:08.069Z,10.63
2022-12-22T06:44:11.018Z,11.20
2022-12-22T06:49:14.008Z,8.93
2022-12-22T06:54:25.727Z,9.30
2022-12-22T06:59:29.180Z,9.07
2022-12-22T07:04:32.217Z,7.27
2022-12-22T07:09:36.471Z,5.10
2022-12-22T07:14:39.440Z,5.87
2022-12-22T07:20:12.428Z,5.03
2022-12-22T07:25:16.929Z,6.37
2022-12-22T07:30:19.879Z,3.97
2022-12-22T07:35:22.793Z,4.23
2022-12-22T07:40:27.455Z,4.37
2022-12-22T07:45:30.625Z,4.57
2022-12-22T07:50:33.553Z,5.17
2022-12-22T07:55:38.184Z,3.47
2022-12-22T08:00:41.115Z,3.70
2022-12-22T08:05:45.570Z,3.33
2022-12-22T08:10:49.860Z,3.27
2022-12-22T08:15:52.753Z,4.30
2022-12-22T08:20:55.966Z,2.50
2022-12-22T08:26:05.649Z,2.40
2022-12-22T08:31:09.030Z,2.60
2022-12-22T08:36:13.037Z,2.70
2022-12-22T08:41:39.291Z,2.67
2022-12-22T08:46:42.292Z,2.07
2022-12-22T08:51:45.542Z,2.07
2022-12-22T08:56:50.134Z,2.10
2022-12-22T09:01:53.184Z,1.97
2022-12-22T09:06:56.196Z,3.00
2022-12-22T09:12:00.860Z,2.27
2022-12-22T09:17:03.875Z,2.53
2022-12-22T09:22:06.856Z,2.10
2022-12-22T09:27:11.304Z,1.97
2022-12-22T09:32:14.315Z,2.60
2022-12-22T09:37:17.717Z,2.20
2022-12-22T09:42:24.007Z,2.20
2022-12-22T09:47:36.013Z,3.23
2022-12-22T09:52:47.447Z,2.30
2022-12-22T09:57:52.699Z,2.00
2022-12-22T10:03:05.927Z,1.90
2022-12-22T10:08:12.560Z,2.70
2022-12-22T10:13:19.662Z,1.73
2022-12-22T10:18:24.460Z,1.50
2022-12-22T10:23:30.494Z,1.20
2022-12-22T10:28:39.722Z,1.40
2022-12-22T10:33:47.190Z,1.30
2022-12-22T10:38:58.305Z,1.60
2022-12-22T10:44:06.299Z,1.50
2022-12-22T10:49:16.501Z,1.00
2022-12-22T10:54:36.462Z,1.10
2022-12-22T10:59:49.745Z,0.90
2022-12-22T11:17:17.228Z,0.90
2022-12-22T11:22:32.499Z,0.83
2022-12-22T11:27:46.250Z,1.10
2022-12-22T11:33:07.976Z,0.80
2022-12-22T11:38:16.980Z,0.90
2022-12-22T11:43:25.711Z,1.03
2022-12-22T11:48:52.529Z,0.97
2022-12-22T11:54:13.421Z,0.90
2022-12-22T11:59:36.260Z,1.13
2022-12-22T12:05:04.501Z,1.00
2022-12-22T12:10:17.228Z,1.30
2022-12-22T12:15:29.744Z,1.20
2022-12-22T12:20:47.172Z,1.00
2022-12-22T12:25:57.697Z,0.90
2022-12-22T12:31:01.984Z,0.90
2022-12-22T12:36:14.534Z,0.97
2022-12-22T12:41:25.713Z,1.47
2022-12-22T12:46:56.071Z,1.20
2022-12-22T12:52:01.551Z,1.50
2022-12-22T12:57:22.994Z,1.10
2022-12-22T13:02:38.379Z,1.03
2022-12-22T13:08:18.165Z,0.90
2022-12-22T13:13:47.002Z,0.90
2022-12-22T13:18:51.887Z,0.90
2022-12-22T13:29:30.615Z,1.07
2022-12-22T13:35:04.352Z,1.03
2022-12-22T13:40:27.161Z,1.03
2022-12-22T13:45:37.663Z,1.00
2022-12-22T13:50:45.186Z,1.13
2022-12-22T13:55:50.061Z,1.00
2022-12-22T14:01:03.039Z,1.00
2022-12-22T14:06:20.593Z,1.03
2022-12-22T14:11:24.931Z,1.37
2022-12-22T14:16:28.047Z,1.10
2022-12-22T14:21:31.321Z,1.10
2022-12-22T14:26:35.672Z,1.10
2022-12-22T14:31:52.707Z,1.47
2022-12-22T14:36:55.731Z,1.50
2022-12-22T14:42:03.110Z,1.10
2022-12-22T14:47:17.452Z,1.30
2022-12-22T14:52:26.225Z,1.30
2022-12-22T14:57:37.239Z,1.47
2022-12-22T15:02:41.616Z,1.17
2022-12-22T15:08:05.258Z,1.10
2022-12-22T15:13:17.889Z,1.07
2022-12-22T15:18:25.736Z,1.00
2022-12-22T15:23:28.907Z,1.00
2022-12-22T15:28:33.831Z,1.00
2022-12-22T15:33:36.729Z,1.10
2022-12-22T15:38:39.908Z,1.13
2022-12-22T15:43:59.878Z,1.60
2022-12-22T15:49:03.554Z,1.30
2022-12-22T15:54:06.549Z,1.37
2022-12-22T15:59:16.243Z,1.40
2022-12-22T16:04:19.608Z,1.30
2022-12-22T16:09:25.107Z,1.40
2022-12-22T16:14:35.239Z,1.57
2022-12-22T16:19:41.752Z,1.20
2022-12-22T16:24:47.762Z,1.37
2022-12-22T16:29:54.664Z,3.03
2022-12-22T16:35:02.466Z,1.40
2022-12-22T16:40:06.827Z,2.20
2022-12-22T16:45:19.451Z,3.40
2022-12-22T16:50:32.264Z,3.90
2022-12-22T16:55:36.026Z,5.40
2022-12-22T17:00:41.754Z,5.20
2022-12-22T17:05:47.357Z,7.00
2022-12-22T17:10:51.167Z,6.90
2022-12-22T17:15:55.436Z,7.17
2022-12-22T17:21:01.259Z,6.50
2022-12-22T17:26:08.042Z,6.67
2022-12-22T17:31:16.669Z,6.57
2022-12-22T17:36:29.152Z,7.30
2022-12-22T17:41:32.325Z,5.73
2022-12-22T17:46:36.676Z,6.13
2022-12-22T17:51:40.963Z,6.00
2022-12-22T17:56:43.943Z,7.00
2022-12-22T18:01:48.566Z,7.10
2022-12-22T18:06:51.661Z,7.77
2022-12-22T18:11:55.098Z,8.17
2022-12-22T18:16:59.493Z,8.53
2022-12-22T18:22:02.465Z,7.07
2022-12-22T18:27:05.327Z,6.23
2022-12-22T18:32:10.186Z,7.80
2022-12-22T18:37:16.841Z,7.57
2022-12-22T18:42:21.879Z,7.40
2022-12-22T18:47:26.259Z,6.57
2022-12-22T18:52:31.068Z,7.63
2022-12-22T18:57:34.291Z,7.80
2022-12-22T19:02:39.014Z,8.00
2022-12-22T19:07:42.033Z,9.23
2022-12-22T19:12:45.780Z,7.90
2022-12-22T19:17:52.765Z,6.80
2022-12-22T19:22:56.042Z,5.90
2022-12-22T19:28:07.328Z,6.67
2022-12-22T19:33:19.327Z,6.20
2022-12-22T19:38:25.576Z,7.57
2022-12-22T19:43:29.170Z,6.10
2022-12-22T19:48:33.405Z,6.20
2022-12-22T19:53:36.272Z,6.50
2022-12-22T19:58:41.579Z,6.50
2022-12-22T20:03:45.956Z,5.67
2022-12-22T20:08:48.873Z,5.23
2022-12-22T20:13:51.970Z,6.20
2022-12-22T20:18:56.270Z,6.13
2022-12-22T20:24:01.173Z,6.13
2022-12-22T20:29:04.149Z,5.73
2022-12-22T20:34:08.523Z,5.00
2022-12-22T20:39:14.278Z,5.63
2022-12-22T20:44:17.191Z,5.23
2022-12-22T20:49:21.470Z,5.63
2022-12-22T20:54:24.373Z,7.50
2022-12-22T20:59:27.329Z,7.27
2022-12-22T21:04:31.652Z,6.33
2022-12-22T21:09:35.742Z,6.27
2022-12-22T21:14:41.761Z,5.93
2022-12-22T21:19:46.274Z,6.17
2022-12-22T21:24:49.155Z,5.23
2022-12-22T21:29:51.995Z,4.90
2022-12-22T21:34:56.252Z,5.53
2022-12-22T21:39:59.134Z,6.10
2022-12-22T21:45:02.013Z,5.30
2022-12-22T21:50:07.378Z,5.43
2022-12-22T21:55:10.272Z,5.60
2022-12-22T22:00:15.463Z,4.97
2022-12-22T22:05:31.575Z,4.20
2022-12-22T22:10:37.150Z,4.17
2022-12-22T22:15:40.365Z,4.37
2022-12-22T22:20:44.904Z,3.87
2022-12-22T22:25:47.907Z,3.70
2022-12-22T22:30:50.858Z,4.17
2022-12-22T22:35:56.284Z,3.60
2022-12-22T22:41:02.473Z,3.80
2022-12-22T22:46:05.609Z,4.13
2022-12-22T22:51:11.349Z,4.30
2022-12-22T22:56:14.256Z,4.30
2022-12-22T23:01:17.155Z,4.80
2022-12-22T23:06:21.402Z,6.47
2022-12-22T23:11:24.546Z,5.63
2022-12-22T23:16:30.885Z,3.90
2022-12-22T23:21:39.943Z,3.70
2022-12-22T23:26:42.969Z,3.67
2022-12-22T23:31:45.950Z,3.70
2022-12-22T23:36:50.195Z,3.40
2022-12-22T23:41:53.131Z,3.70
2022-12-22T23:46:56.018Z,3.90
2022-12-22T23:52:00.312Z,3.57
2022-12-22T23:57:03.227Z,3.60
